createdAt,value
2018-12-13T00:01:46.407Z,0.20
2018-12-13T00:04:23.085Z,0.20
2018-12-13T00:06:56.760Z,0.10
2018-12-13T00:09:31.724Z,0.00
2018-12-13T00:12:06.822Z,0.00
2018-12-13T00:14:41.682Z,-0.10
2018-12-13T00:17:15.116Z,0.00
2018-12-13T00:19:51.723Z,0.00
2018-12-13T00:22:26.799Z,0.00
2018-12-13T00:25:01.726Z,0.00
2018-12-13T00:27:36.856Z,-0.10
2018-12-13T00:30:11.374Z,-0.10
2018-12-13T00:32:46.815Z,-0.10
2018-12-13T00:35:21.723Z,0.00
2018-12-13T00:37:55.971Z,-0.10
2018-12-13T00:40:31.723Z,0.00
2018-12-13T00:43:09.452Z,0.00
2018-12-13T00:45:46.970Z,0.10
2018-12-13T00:48:23.774Z,0.10
2018-12-13T00:50:59.981Z,0.10
2018-12-13T00:53:36.765Z,0.10
2018-12-13T00:56:14.157Z,0.10
2018-12-13T00:58:48.589Z,0.00
2018-12-13T01:01:24.212Z,0.00
2018-12-13T01:04:00.950Z,0.00
2018-12-13T01:06:45.851Z,-0.10
2018-12-13T01:09:17.153Z,0.00
2018-12-13T01:11:53.604Z,-0.10
2018-12-13T01:14:28.123Z,0.00
2018-12-13T01:17:02.820Z,0.00
2018-12-13T01:19:37.795Z,0.00
2018-12-13T01:22:14.494Z,0.00
2018-12-13T01:24:49.031Z,0.00
2018-12-13T01:27:23.976Z,0.00
2018-12-13T01:29:59.266Z,0.10
2018-12-13T01:32:35.004Z,0.10
2018-12-13T01:35:09.324Z,0.10
2018-12-13T01:37:44.762Z,0.10
2018-12-13T01:40:18.909Z,0.10
2018-12-13T01:42:52.640Z,0.10
2018-12-13T01:45:31.015Z,0.10
2018-12-13T01:48:05.724Z,0.10
2018-12-13T01:50:38.836Z,-0.10
2018-12-13T01:53:13.583Z,-0.10
2018-12-13T01:55:48.375Z,-0.10
2018-12-13T01:58:23.793Z,-0.20
2018-12-13T02:00:58.282Z,-0.20
2018-12-13T02:03:33.226Z,-0.20
2018-12-13T02:06:16.990Z,-0.20
2018-12-13T02:08:57.045Z,-0.20
2018-12-13T02:11:31.725Z,-0.30
2018-12-13T02:14:06.238Z,-0.30
2018-12-13T02:16:38.980Z,-0.40
2018-12-13T02:19:14.770Z,-0.40
2018-12-13T02:21:49.512Z,-0.40
2018-12-13T02:24:25.251Z,-0.30
2018-12-13T02:27:00.973Z,-0.30
2018-12-13T02:29:38.284Z,-0.20
2018-12-13T02:32:13.922Z,-0.20
2018-12-13T02:34:51.113Z,-0.30
2018-12-13T02:37:27.630Z,-0.50
2018-12-13T02:40:04.299Z,-0.50
2018-12-13T02:42:39.789Z,-0.60
2018-12-13T02:45:15.457Z,-0.60
2018-12-13T02:47:52.618Z,-0.70
2018-12-13T02:50:28.110Z,-0.60
2018-12-13T02:53:02.627Z,-0.60
2018-12-13T02:55:38.094Z,-0.60
2018-12-13T02:58:12.880Z,-0.70
2018-12-13T03:00:46.813Z,-0.70
2018-12-13T03:03:20.953Z,-0.70
2018-12-13T03:05:56.622Z,-0.70
2018-12-13T03:08:30.993Z,-0.70
2018-12-13T03:11:06.037Z,-0.60
2018-12-13T03:13:41.403Z,-0.60
2018-12-13T03:16:16.496Z,-0.70
2018-12-13T03:18:53.613Z,-0.70
2018-12-13T03:21:30.450Z,-0.70
2018-12-13T03:24:06.467Z,-0.70
2018-12-13T03:26:42.511Z,-0.70
2018-12-13T03:29:16.686Z,-0.70
2018-12-13T03:31:50.843Z,-0.70
2018-12-13T03:34:25.481Z,-0.70
2018-12-13T03:37:00.698Z,-0.80
2018-12-13T03:39:34.422Z,-0.70
2018-12-13T03:42:09.455Z,-0.70
2018-12-13T03:44:46.073Z,-0.70
2018-12-13T03:47:23.011Z,-0.70
2018-12-13T03:49:58.029Z,-0.70
2018-12-13T03:52:34.596Z,-0.70
2018-12-13T03:55:09.812Z,-0.60
2018-12-13T03:57:45.056Z,-0.70
2018-12-13T04:00:18.198Z,-0.70
2018-12-13T04:02:52.929Z,-0.80
2018-12-13T04:05:28.102Z,-0.80
2018-12-13T04:08:04.952Z,-0.90
2018-12-13T04:10:37.489Z,-0.90
2018-12-13T04:13:11.727Z,-0.90
2018-12-13T04:15:45.991Z,-1.00
2018-12-13T04:18:20.305Z,-0.90
2018-12-13T04:20:54.885Z,-0.90
2018-12-13T04:23:30.618Z,-1.00
2018-12-13T04:26:06.356Z,-0.90
2018-12-13T04:28:41.726Z,-0.90
2018-12-13T04:31:18.889Z,-0.90
2018-12-13T04:33:54.680Z,-0.80
2018-12-13T04:36:30.086Z,-0.80
2018-12-13T04:39:05.709Z,-0.80
2018-12-13T04:41:39.512Z,-0.80
2018-12-13T04:44:16.356Z,-0.80
2018-12-13T04:46:52.929Z,-0.80
2018-12-13T04:49:28.950Z,-0.90
2018-12-13T04:52:04.387Z,-0.90
2018-12-13T04:54:40.103Z,-0.90
2018-12-13T04:57:15.820Z,-0.90
2018-12-13T04:59:51.725Z,-0.90
2018-12-13T05:02:26.300Z,-0.90
2018-12-13T05:05:00.392Z,-1.00
2018-12-13T05:07:33.640Z,-1.00
2018-12-13T05:10:08.716Z,-1.00
2018-12-13T05:12:43.364Z,-1.00
2018-12-13T05:15:18.682Z,-1.00
2018-12-13T05:17:51.727Z,-1.00
2018-12-13T05:20:30.588Z,-1.00
2018-12-13T05:23:06.312Z,-1.00
2018-12-13T05:25:41.727Z,-1.00
2018-12-13T05:28:18.386Z,-1.00
2018-12-13T05:30:54.050Z,-1.00
2018-12-13T05:33:30.240Z,-1.00
2018-12-13T05:36:05.281Z,-1.00
2018-12-13T05:38:39.798Z,-1.00
2018-12-13T05:41:15.663Z,-1.00
2018-12-13T05:43:56.154Z,-1.00
2018-12-13T05:46:31.727Z,-1.00
2018-12-13T05:49:07.990Z,-1.00
2018-12-13T05:51:42.982Z,-1.00
2018-12-13T05:54:18.172Z,-1.10
2018-12-13T05:56:52.809Z,-1.00
2018-12-13T05:59:26.902Z,-1.10
2018-12-13T06:02:01.367Z,-1.10
2018-12-13T06:04:37.758Z,-1.00
2018-12-13T06:07:13.002Z,-1.10
2018-12-13T06:09:49.265Z,-1.10
2018-12-13T06:12:24.133Z,-1.00
2018-12-13T06:15:00.847Z,-1.00
2018-12-13T06:17:39.422Z,-1.10
2018-12-13T06:20:12.821Z,-1.10
2018-12-13T06:22:48.704Z,-1.10
2018-12-13T06:25:23.710Z,-1.00
2018-12-13T06:27:59.487Z,-1.00
2018-12-13T06:30:34.459Z,-1.00
2018-12-13T06:33:09.688Z,-0.90
2018-12-13T06:35:42.894Z,-1.00
2018-12-13T06:38:15.835Z,-1.00
2018-12-13T06:40:49.712Z,-1.00
2018-12-13T06:43:24.252Z,-1.10
2018-12-13T06:45:59.214Z,-1.10
2018-12-13T06:48:33.741Z,-1.00
2018-12-13T06:51:07.444Z,-1.00
2018-12-13T06:53:45.763Z,-1.00
2018-12-13T06:56:20.527Z,-1.00
2018-12-13T06:58:54.477Z,-1.00
2018-12-13T07:01:30.399Z,-0.90
2018-12-13T07:04:07.126Z,-1.00
2018-12-13T07:06:42.832Z,-1.00
2018-12-13T07:09:17.712Z,-1.00
2018-12-13T07:11:47.927Z,-0.90
2018-12-13T07:14:23.996Z,-0.90
2018-12-13T07:16:58.066Z,-0.90
2018-12-13T07:19:29.474Z,-0.90
2018-12-13T07:22:01.579Z,-0.80
2018-12-13T07:24:35.821Z,-0.80
2018-12-13T07:27:09.135Z,-0.70
2018-12-13T07:29:42.015Z,-0.80
2018-12-13T07:32:13.128Z,-0.80
2018-12-13T07:34:46.431Z,-0.70
2018-12-13T07:37:21.728Z,-0.70
2018-12-13T07:39:53.802Z,-0.70
2018-12-13T07:42:23.661Z,-0.70
2018-12-13T07:44:57.731Z,-0.70
2018-12-13T07:47:32.304Z,-0.70
2018-12-13T07:50:04.995Z,-0.70
2018-12-13T07:52:37.876Z,-0.70
2018-12-13T07:55:13.186Z,-0.80
2018-12-13T07:57:47.564Z,-0.70
2018-12-13T08:00:21.732Z,-0.70
2018-12-13T08:02:55.937Z,-0.70
2018-12-13T08:05:30.575Z,-0.70
2018-12-13T08:08:02.782Z,-0.80
2018-12-13T08:10:39.057Z,-0.80
2018-12-13T08:13:13.412Z,-0.80
2018-12-13T08:15:49.410Z,-0.80
2018-12-13T08:18:24.328Z,-0.80
2018-12-13T08:20:59.465Z,-0.70
2018-12-13T08:23:35.817Z,-0.60
2018-12-13T08:26:10.838Z,-0.60
2018-12-13T08:28:43.735Z,-0.60
2018-12-13T08:31:18.021Z,-0.70
2018-12-13T08:33:52.737Z,-0.70
2018-12-13T08:36:24.870Z,-0.70
2018-12-13T08:38:58.228Z,-0.60
2018-12-13T08:41:31.712Z,-0.50
2018-12-13T08:44:09.471Z,-0.50
2018-12-13T08:46:46.827Z,-0.60
2018-12-13T08:49:20.177Z,-0.50
2018-12-13T08:51:53.903Z,-0.50
2018-12-13T08:54:29.080Z,-0.40
2018-12-13T08:57:05.184Z,-0.40
2018-12-13T08:59:40.786Z,-0.40
2018-12-13T09:02:16.108Z,-0.40
2018-12-13T09:04:50.401Z,-0.30
2018-12-13T09:07:24.605Z,-0.40
2018-12-13T09:09:55.148Z,-0.40
2018-12-13T09:12:31.708Z,-0.40
2018-12-13T09:15:06.666Z,-0.40
2018-12-13T09:17:43.386Z,-0.30
2018-12-13T09:20:18.974Z,-0.40
2018-12-13T09:22:54.795Z,-0.20
2018-12-13T09:25:29.551Z,-0.20
2018-12-13T09:28:05.451Z,-0.30
2018-12-13T09:30:40.655Z,-0.30
2018-12-13T09:33:16.956Z,-0.30
2018-12-13T09:35:52.124Z,-0.30
2018-12-13T09:41:03.731Z,-0.30
2018-12-13T09:43:37.560Z,-0.40
2018-12-13T09:46:13.083Z,-0.40
2018-12-13T09:48:44.464Z,-0.40
2018-12-13T09:51:19.321Z,-0.30
2018-12-13T09:53:54.736Z,-0.50
2018-12-13T09:56:28.996Z,-0.40
2018-12-13T09:59:05.093Z,-0.40
2018-12-13T10:01:39.211Z,-0.30
2018-12-13T10:04:08.978Z,-0.30
2018-12-13T10:06:41.161Z,-0.30
2018-12-13T10:09:14.969Z,-0.30
2018-12-13T10:11:51.600Z,-0.20
2018-12-13T10:14:26.629Z,-0.10
2018-12-13T10:17:00.899Z,-0.10
2018-12-13T10:19:37.043Z,0.00
2018-12-13T10:22:11.985Z,0.00
2018-12-13T10:24:47.306Z,0.10
2018-12-13T10:27:22.980Z,0.10
2018-12-13T10:29:58.435Z,0.20
2018-12-13T10:32:33.835Z,0.20
2018-12-13T10:35:11.750Z,0.20
2018-12-13T10:37:47.020Z,0.20
2018-12-13T10:40:25.552Z,0.20
2018-12-13T10:42:56.421Z,0.10
2018-12-13T10:45:28.071Z,0.20
2018-12-13T10:47:58.193Z,0.10
2018-12-13T10:50:33.741Z,0.10
2018-12-13T10:53:02.705Z,0.10
2018-12-13T10:55:34.540Z,0.10
2018-12-13T10:58:08.610Z,0.00
2018-12-13T11:00:46.201Z,-0.10
2018-12-13T11:03:24.696Z,0.00
2018-12-13T11:06:01.180Z,-0.10
2018-12-13T11:08:35.571Z,-0.10
2018-12-13T11:11:10.568Z,-0.20
2018-12-13T11:13:44.589Z,-0.10
2018-12-13T11:16:20.428Z,-0.10
2018-12-13T11:18:54.797Z,0.00
2018-12-13T11:21:24.333Z,-0.10
2018-12-13T11:23:55.457Z,-0.10
2018-12-13T11:26:28.442Z,0.00
2018-12-13T11:31:55.062Z,0.00
2018-12-13T11:34:23.095Z,0.10
2018-12-13T11:36:54.929Z,0.10
2018-12-13T11:39:23.612Z,0.00
2018-12-13T11:41:56.067Z,0.00
2018-12-13T11:44:26.405Z,0.10
2018-12-13T11:46:59.879Z,0.20
2018-12-13T11:49:31.729Z,0.10
2018-12-13T11:52:05.265Z,0.10
2018-12-13T11:54:38.524Z,0.20
2018-12-13T11:57:11.103Z,0.00
2018-12-13T11:59:45.516Z,0.10
2018-12-13T12:02:23.968Z,0.10
2018-12-13T12:04:57.748Z,0.00
2018-12-13T12:07:31.728Z,-0.10
2018-12-13T12:10:00.609Z,-0.20
2018-12-13T12:12:34.586Z,-0.30
2018-12-13T12:15:03.365Z,-0.30
2018-12-13T12:17:36.871Z,-0.30
2018-12-13T12:20:10.997Z,-0.30
2018-12-13T12:22:45.832Z,-0.40
2018-12-13T12:25:21.728Z,-0.30
2018-12-13T12:27:56.732Z,-0.30
2018-12-13T12:30:31.575Z,-0.20
2018-12-13T12:33:05.703Z,-0.20
2018-12-13T12:35:38.910Z,-0.20
2018-12-13T12:38:12.963Z,-0.20
2018-12-13T12:40:48.688Z,-0.20
2018-12-13T12:43:24.017Z,-0.10
2018-12-13T12:45:52.374Z,-0.10
2018-12-13T12:48:26.798Z,-0.10
2018-12-13T12:50:55.415Z,-0.20
2018-12-13T12:53:28.529Z,-0.20
2018-12-13T12:56:03.894Z,-0.30
2018-12-13T12:58:37.373Z,-0.30
2018-12-13T13:01:11.729Z,-0.40
2018-12-13T13:03:45.808Z,-0.40
2018-12-13T13:06:20.109Z,-0.50
2018-12-13T13:08:54.484Z,-0.50
2018-12-13T13:11:27.549Z,-0.40
2018-12-13T13:14:01.437Z,-0.50
2018-12-13T13:16:32.985Z,-0.50
2018-12-13T13:19:07.009Z,-0.50
2018-12-13T13:21:39.602Z,-0.50
2018-12-13T13:24:16.262Z,-0.40
2018-12-13T13:26:50.089Z,-0.50
2018-12-13T13:29:24.299Z,-0.40
2018-12-13T13:31:57.367Z,-0.40
2018-12-13T13:34:26.411Z,-0.40
2018-12-13T13:36:59.809Z,-0.50
2018-12-13T13:39:31.668Z,-0.60
2018-12-13T13:42:03.282Z,-0.50
2018-12-13T13:44:39.094Z,-0.50
2018-12-13T13:47:11.729Z,-0.50
2018-12-13T13:49:43.887Z,-0.40
2018-12-13T13:52:18.023Z,-0.40
2018-12-13T13:54:52.460Z,-0.40
2018-12-13T13:57:25.083Z,-0.40
2018-12-13T13:59:59.583Z,-0.50
2018-12-13T14:02:34.090Z,-0.60
2018-12-13T14:05:08.544Z,-0.60
2018-12-13T14:07:42.957Z,-0.60
2018-12-13T14:10:20.511Z,-0.60
2018-12-13T14:12:51.729Z,-0.70
2018-12-13T14:15:22.483Z,-0.70
2018-12-13T14:17:56.049Z,-0.70
2018-12-13T14:20:30.568Z,-0.70
2018-12-13T14:23:03.465Z,-0.60
2018-12-13T14:25:38.106Z,-0.70
2018-12-13T14:28:10.046Z,-0.70
2018-12-13T14:30:46.523Z,-0.60
2018-12-13T14:33:22.499Z,-0.60
2018-12-13T14:35:55.701Z,-0.70
2018-12-13T14:38:30.532Z,-0.80
2018-12-13T14:41:03.029Z,-0.80
2018-12-13T14:43:36.304Z,-0.80
2018-12-13T14:46:04.960Z,-0.80
2018-12-13T14:48:37.651Z,-0.80
2018-12-13T14:51:11.728Z,-0.80
2018-12-13T14:53:46.446Z,-0.80
2018-12-13T14:56:20.225Z,-0.90
2018-12-13T14:58:54.227Z,-0.90
2018-12-13T15:01:26.741Z,-0.90
2018-12-13T15:04:00.510Z,-0.90
2018-12-13T15:06:37.173Z,-1.00
2018-12-13T15:09:11.727Z,-1.00
2018-12-13T15:11:43.871Z,-1.10
2018-12-13T15:14:14.370Z,-1.00
2018-12-13T15:16:42.768Z,-1.00
2018-12-13T15:19:18.261Z,-0.90
2018-12-13T15:21:51.727Z,-0.90
2018-12-13T15:24:26.816Z,-0.90
2018-12-13T15:27:00.928Z,-0.90
2018-12-13T15:29:35.409Z,-1.00
2018-12-13T15:32:09.303Z,-0.90
2018-12-13T15:34:42.801Z,-1.10
2018-12-13T15:37:16.528Z,-1.00
2018-12-13T15:39:57.066Z,-1.10
2018-12-13T15:42:31.726Z,-1.10
2018-12-13T15:45:11.726Z,-1.10
2018-12-13T15:47:45.203Z,-1.10
2018-12-13T15:50:19.490Z,-1.00
2018-12-13T15:52:52.601Z,-1.10
2018-12-13T15:55:27.694Z,-1.20
2018-12-13T15:58:04.766Z,-1.20
2018-12-13T16:00:38.578Z,-1.20
2018-12-13T16:03:13.256Z,-1.10
2018-12-13T16:05:49.862Z,-1.20
2018-12-13T16:08:22.263Z,-1.20
2018-12-13T16:10:55.089Z,-1.10
2018-12-13T16:13:28.630Z,-1.10
2018-12-13T16:16:02.950Z,-1.20
2018-12-13T16:18:33.620Z,-1.20
2018-12-13T16:21:05.272Z,-1.20
2018-12-13T16:23:39.783Z,-1.20
2018-12-13T16:26:11.738Z,-1.20
2018-12-13T16:28:47.311Z,-1.30
2018-12-13T16:31:22.657Z,-1.20
2018-12-13T16:33:52.486Z,-1.20
2018-12-13T16:36:22.640Z,-1.30
2018-12-13T16:38:54.108Z,-1.30
2018-12-13T16:41:23.415Z,-1.40
2018-12-13T16:43:51.225Z,-1.40
2018-12-13T16:46:21.276Z,-1.30
2018-12-13T16:48:49.070Z,-1.20
2018-12-13T16:51:19.518Z,-1.30
2018-12-13T16:53:51.666Z,-1.30
2018-12-13T16:56:24.339Z,-1.30
2018-12-13T16:58:53.563Z,-1.30
2018-12-13T17:01:23.093Z,-1.30
2018-12-13T17:03:52.724Z,-1.30
2018-12-13T17:06:22.525Z,-1.30
2018-12-13T17:08:52.431Z,-1.30
2018-12-13T17:11:22.574Z,-1.30
2018-12-13T17:13:54.006Z,-1.30
2018-12-13T17:16:24.122Z,-1.40
2018-12-13T17:18:53.292Z,-1.40
2018-12-13T17:21:23.809Z,-1.40
2018-12-13T17:23:53.171Z,-1.40
2018-12-13T17:26:23.077Z,-1.40
2018-12-13T17:28:53.424Z,-1.40
2018-12-13T17:31:25.239Z,-1.40
2018-12-13T17:33:57.251Z,-1.40
2018-12-13T17:36:27.767Z,-1.40
2018-12-13T17:38:59.268Z,-1.30
2018-12-13T17:41:29.225Z,-1.20
2018-12-13T17:44:01.790Z,-1.20
2018-12-13T17:46:33.255Z,-1.20
2018-12-13T17:49:03.457Z,-1.10
2018-12-13T17:51:33.016Z,-1.10
2018-12-13T17:54:02.396Z,-1.20
2018-12-13T17:56:32.603Z,-1.40
2018-12-13T17:59:02.266Z,-1.40
2018-12-13T18:01:32.593Z,-1.40
2018-12-13T18:04:02.848Z,-1.40
2018-12-13T18:06:32.930Z,-1.30
2018-12-13T18:09:05.381Z,-1.30
2018-12-13T18:11:34.859Z,-1.30
2018-12-13T18:14:04.473Z,-1.30
2018-12-13T18:16:34.306Z,-1.40
2018-12-13T18:19:06.165Z,-1.30
2018-12-13T18:21:36.760Z,-1.30
2018-12-13T18:24:12.650Z,-1.30
2018-12-13T18:26:44.666Z,-1.30
2018-12-13T18:29:16.833Z,-1.30
2018-12-13T18:31:47.218Z,-1.30
2018-12-13T18:34:17.466Z,-1.50
2018-12-13T18:36:47.502Z,-1.50
2018-12-13T18:39:17.124Z,-1.60
2018-12-13T18:41:47.076Z,-1.60
2018-12-13T18:44:17.371Z,-1.60
2018-12-13T18:46:49.117Z,-1.60
2018-12-13T18:49:21.015Z,-1.60
2018-12-13T18:51:51.514Z,-1.60
2018-12-13T18:54:22.562Z,-1.50
2018-12-13T18:56:51.996Z,-1.50
2018-12-13T18:59:22.428Z,-1.50
2018-12-13T19:01:53.939Z,-1.50
2018-12-13T19:04:24.918Z,-1.40
2018-12-13T19:06:53.875Z,-1.30
2018-12-13T19:09:23.250Z,-1.40
2018-12-13T19:12:02.383Z,-1.30
2018-12-13T19:14:34.792Z,-1.30
2018-12-13T19:17:04.278Z,-1.30
2018-12-13T19:19:39.809Z,-1.30
2018-12-13T19:22:10.723Z,-1.40
2018-12-13T19:24:39.889Z,-1.40
2018-12-13T19:27:11.174Z,-1.40
2018-12-13T19:29:42.235Z,-1.40
2018-12-13T19:32:12.671Z,-1.40
2018-12-13T19:34:45.754Z,-1.40
2018-12-13T19:37:18.062Z,-1.40
2018-12-13T19:39:51.810Z,-1.40
2018-12-13T19:42:22.894Z,-1.30
2018-12-13T19:44:52.560Z,-1.40
2018-12-13T19:47:21.340Z,-1.30
2018-12-13T19:49:51.338Z,-1.30
2018-12-13T19:52:22.202Z,-1.20
2018-12-13T19:54:52.850Z,-1.20
2018-12-13T19:57:23.359Z,-1.30
2018-12-13T19:59:53.361Z,-1.30
2018-12-13T20:02:23.641Z,-1.30
2018-12-13T20:04:55.909Z,-1.40
2018-12-13T20:07:28.229Z,-1.40
2018-12-13T20:09:59.023Z,-1.40
2018-12-13T20:12:30.343Z,-1.40
2018-12-13T20:15:03.127Z,-1.30
2018-12-13T20:17:32.404Z,-1.30
2018-12-13T20:20:02.640Z,-1.30
2018-12-13T20:22:32.786Z,-1.20
2018-12-13T20:25:02.440Z,-1.20
2018-12-13T20:27:32.475Z,-1.20
2018-12-13T20:30:01.972Z,-1.20
2018-12-13T20:32:34.156Z,-1.20
2018-12-13T20:35:06.392Z,-1.20
2018-12-13T20:37:34.969Z,-1.30
2018-12-13T20:40:06.682Z,-1.20
2018-12-13T20:42:36.124Z,-1.30
2018-12-13T20:45:06.758Z,-1.40
2018-12-13T20:47:38.574Z,-1.40
2018-12-13T20:50:07.242Z,-1.50
2018-12-13T20:52:37.915Z,-1.50
2018-12-13T20:55:07.644Z,-1.50
2018-12-13T20:57:38.030Z,-1.50
2018-12-13T21:00:11.609Z,-1.50
2018-12-13T21:02:43.373Z,-1.50
2018-12-13T21:05:14.923Z,-1.40
2018-12-13T21:07:47.100Z,-1.40
2018-12-13T21:10:16.852Z,-1.50
2018-12-13T21:12:47.649Z,-1.50
2018-12-13T21:15:21.359Z,-1.50
2018-12-13T21:17:51.915Z,-1.60
2018-12-13T21:20:22.399Z,-1.60
2018-12-13T21:22:56.990Z,-1.50
2018-12-13T21:25:27.590Z,-1.60
2018-12-13T21:28:00.730Z,-1.60
2018-12-13T21:30:32.277Z,-1.60
2018-12-13T21:33:04.838Z,-1.60
2018-12-13T21:35:36.387Z,-1.60
2018-12-13T21:38:07.358Z,-1.60
2018-12-13T21:40:36.168Z,-1.60
2018-12-13T21:43:05.024Z,-1.50
2018-12-13T21:45:35.340Z,-1.50
2018-12-13T21:48:03.434Z,-1.40
2018-12-13T21:50:34.523Z,-1.40
2018-12-13T21:53:05.031Z,-1.40
2018-12-13T21:55:36.024Z,-1.50
2018-12-13T21:58:05.532Z,-1.50
2018-12-13T22:00:34.397Z,-1.60
2018-12-13T22:03:06.191Z,-1.60
2018-12-13T22:05:39.628Z,-1.60
2018-12-13T22:08:13.705Z,-1.60
2018-12-13T22:10:48.246Z,-1.50
2018-12-13T22:13:23.260Z,-1.50
2018-12-13T22:16:01.733Z,-1.50
2018-12-13T22:18:30.200Z,-1.40
2018-12-13T22:21:04.437Z,-1.40
2018-12-13T22:23:38.778Z,-1.50
2018-12-13T22:26:14.437Z,-1.50
2018-12-13T22:28:48.998Z,-1.50
2018-12-13T22:31:19.069Z,-1.60
2018-12-13T22:33:51.932Z,-1.60
2018-12-13T22:36:28.734Z,-1.50
2018-12-13T22:39:03.227Z,-1.50
2018-12-13T22:41:36.700Z,-1.50
2018-12-13T22:44:11.297Z,-1.50
2018-12-13T22:46:39.157Z,-1.50
2018-12-13T22:49:07.753Z,-1.50
2018-12-13T22:51:41.734Z,-1.40
2018-12-13T22:54:13.505Z,-1.40
2018-12-13T22:56:47.159Z,-1.50
2018-12-13T22:59:21.639Z,-1.50
2018-12-13T23:01:55.530Z,-1.60
2018-12-13T23:04:30.351Z,-1.60
2018-12-13T23:07:02.927Z,-1.60
2018-12-13T23:09:36.224Z,-1.60
2018-12-13T23:12:09.452Z,-1.60
2018-12-13T23:14:40.862Z,-1.70
2018-12-13T23:17:12.835Z,-1.70
2018-12-13T23:19:45.151Z,-1.70
2018-12-13T23:22:21.735Z,-1.70
2018-12-13T23:24:52.921Z,-1.60
2018-12-13T23:27:25.236Z,-1.70
2018-12-13T23:29:57.912Z,-1.70
2018-12-13T23:32:32.654Z,-1.70
2018-12-13T23:35:04.791Z,-1.70
2018-12-13T23:37:38.075Z,-1.70
2018-12-13T23:40:11.223Z,-1.60
2018-12-13T23:42:46.682Z,-1.60
2018-12-13T23:45:20.385Z,-1.60
2018-12-13T23:47:56.102Z,-1.70
2018-12-13T23:50:31.734Z,-1.80
2018-12-13T23:53:09.011Z,-1.80
2018-12-13T23:55:44.232Z,-1.80
2018-12-13T23:58:19.054Z,-1.90
